createdAt,value
2022-09-28T00:02:25.724Z,2.80
2022-09-28T00:04:52.571Z,2.95
2022-09-28T00:07:19.837Z,2.80
2022-09-28T00:09:46.705Z,2.85
2022-09-28T00:12:13.502Z,2.45
2022-09-28T00:14:40.763Z,2.63
2022-09-28T00:17:08.375Z,2.90
2022-09-28T00:19:35.238Z,2.70
2022-09-28T00:22:02.125Z,2.88
2022-09-28T00:24:29.729Z,3.22
2022-09-28T00:26:58.897Z,3.42
2022-09-28T00:29:31.586Z,3.00
2022-09-28T00:32:11.818Z,3.53
2022-09-28T00:34:42.425Z,2.75
2022-09-28T00:37:10.295Z,3.30
2022-09-28T00:39:38.521Z,3.67
2022-09-28T00:42:14.629Z,3.03
2022-09-28T00:44:49.085Z,3.20
2022-09-28T00:47:21.957Z,3.00
2022-09-28T00:49:54.928Z,3.50
2022-09-28T00:52:37.051Z,2.95
2022-09-28T00:55:08.466Z,3.47
2022-09-28T00:57:37.423Z,3.40
2022-09-28T01:00:06.173Z,3.58
2022-09-28T01:02:33.133Z,3.20
2022-09-28T01:05:01.585Z,3.92
2022-09-28T01:07:29.160Z,3.13
2022-09-28T01:09:56.433Z,3.28
2022-09-28T01:12:23.493Z,3.38
2022-09-28T01:14:51.862Z,3.55
2022-09-28T01:17:51.082Z,3.40
2022-09-28T01:20:47.363Z,3.63
2022-09-28T01:23:26.226Z,3.00
2022-09-28T01:26:16.349Z,3.13
2022-09-28T01:28:45.557Z,2.67
2022-09-28T01:31:17.995Z,2.50
2022-09-28T01:33:46.748Z,2.80
2022-09-28T01:36:28.191Z,3.03
2022-09-28T01:39:10.821Z,2.30
2022-09-28T01:41:41.389Z,3.08
2022-09-28T01:44:14.233Z,2.67
2022-09-28T01:46:45.510Z,2.25
2022-09-28T01:49:25.855Z,2.30
2022-09-28T01:51:57.302Z,2.22
2022-09-28T01:55:02.513Z,2.70
2022-09-28T01:57:48.072Z,1.90
2022-09-28T02:00:16.453Z,2.22
2022-09-28T02:03:16.940Z,2.28
2022-09-28T02:06:11.190Z,2.38
2022-09-28T02:08:48.272Z,2.20
2022-09-28T02:11:17.472Z,1.83
2022-09-28T02:14:06.921Z,1.42
2022-09-28T02:16:43.020Z,1.67
2022-09-28T02:19:26.016Z,2.00
2022-09-28T02:22:25.083Z,2.10
2022-09-28T02:25:03.512Z,2.22
2022-09-28T02:27:42.546Z,1.92
2022-09-28T02:30:10.585Z,2.70
2022-09-28T02:32:41.361Z,2.67
2022-09-28T02:35:12.214Z,2.97
2022-09-28T02:37:40.403Z,2.60
2022-09-28T02:40:31.990Z,2.90
2022-09-28T02:43:18.146Z,3.10
2022-09-28T02:46:02.304Z,3.08
2022-09-28T02:49:17.258Z,2.75
2022-09-28T02:52:28.040Z,3.08
2022-09-28T02:55:04.025Z,2.53
2022-09-28T02:58:17.323Z,4.78
2022-09-28T03:01:08.809Z,2.72
2022-09-28T03:03:53.408Z,3.03
2022-09-28T03:06:38.247Z,2.72
2022-09-28T03:09:28.767Z,2.65
2022-09-28T03:12:05.085Z,3.20
2022-09-28T03:14:32.253Z,2.90
2022-09-28T03:16:59.212Z,3.28
2022-09-28T03:19:31.500Z,3.45
2022-09-28T03:21:59.452Z,2.90
2022-09-28T03:24:27.226Z,3.17
2022-09-28T03:26:54.553Z,2.53
2022-09-28T03:29:21.476Z,2.85
2022-09-28T03:31:49.248Z,2.92
2022-09-28T03:34:16.433Z,2.70
2022-09-28T03:36:43.590Z,2.85
2022-09-28T03:39:10.554Z,2.83
2022-09-28T03:41:38.343Z,2.70
2022-09-28T03:44:05.444Z,2.70
2022-09-28T03:46:32.469Z,3.05
2022-09-28T03:48:59.460Z,2.58
2022-09-28T03:51:26.852Z,2.80
2022-09-28T03:53:53.832Z,2.92
2022-09-28T03:56:20.651Z,3.45
2022-09-28T03:58:47.539Z,3.30
2022-09-28T04:01:17.660Z,3.63
2022-09-28T04:03:45.680Z,3.42
2022-09-28T04:06:13.832Z,4.10
2022-09-28T04:08:40.850Z,3.50
2022-09-28T04:11:07.998Z,3.85
2022-09-28T04:13:35.123Z,4.07
2022-09-28T04:16:02.459Z,3.53
2022-09-28T04:18:29.856Z,3.53
2022-09-28T04:21:03.547Z,4.45
2022-09-28T04:23:30.725Z,9.90
2022-09-28T04:25:57.717Z,15.90
2022-09-28T04:28:43.979Z,17.50
2022-09-28T04:31:17.167Z,7.13
2022-09-28T04:33:44.268Z,5.18
2022-09-28T04:36:11.438Z,5.15
2022-09-28T04:38:52.401Z,5.72
2022-09-28T04:41:22.401Z,5.22
2022-09-28T04:43:50.337Z,4.88
2022-09-28T04:46:17.952Z,5.35
2022-09-28T04:48:45.388Z,6.03
2022-09-28T04:51:12.668Z,5.10
2022-09-28T04:53:39.549Z,5.03
2022-09-28T04:56:10.727Z,4.97
2022-09-28T04:58:38.275Z,4.72
2022-09-28T05:01:08.451Z,5.20
2022-09-28T05:03:36.263Z,5.25
2022-09-28T05:06:03.830Z,5.40
2022-09-28T05:08:31.050Z,5.05
2022-09-28T05:11:07.650Z,4.93
2022-09-28T05:13:42.165Z,4.20
2022-09-28T05:16:13.896Z,4.55
2022-09-28T05:18:40.835Z,6.10
2022-09-28T05:21:15.308Z,4.90
2022-09-28T05:23:47.524Z,6.35
2022-09-28T05:26:15.484Z,7.28
2022-09-28T05:28:46.484Z,5.18
2022-09-28T05:31:13.988Z,4.97
2022-09-28T05:33:41.004Z,4.40
2022-09-28T05:36:11.006Z,3.55
2022-09-28T05:38:38.652Z,3.85
2022-09-28T05:41:06.813Z,5.50
2022-09-28T05:43:34.551Z,7.57
2022-09-28T05:46:01.532Z,4.80
2022-09-28T05:48:28.509Z,6.22
2022-09-28T05:50:56.143Z,7.38
2022-09-28T05:53:23.093Z,6.63
2022-09-28T05:55:49.855Z,6.30
2022-09-28T05:58:17.045Z,6.40
2022-09-28T06:00:44.054Z,5.72
2022-09-28T06:03:13.427Z,4.97
2022-09-28T06:05:40.793Z,3.70
2022-09-28T06:08:10.756Z,3.22
2022-09-28T06:10:38.271Z,3.60
2022-09-28T06:13:06.526Z,4.15
2022-09-28T06:15:34.954Z,3.83
2022-09-28T06:18:05.055Z,3.72
2022-09-28T06:20:35.676Z,4.35
2022-09-28T06:23:02.910Z,3.88
2022-09-28T06:25:29.852Z,3.95
2022-09-28T06:28:07.311Z,4.53
2022-09-28T06:30:38.152Z,3.90
2022-09-28T06:33:07.179Z,4.20
2022-09-28T06:35:34.947Z,4.65
2022-09-28T06:38:02.208Z,4.63
2022-09-28T06:40:29.768Z,4.45
2022-09-28T06:42:57.842Z,4.43
2022-09-28T06:45:25.602Z,5.80
2022-09-28T06:48:11.495Z,4.72
2022-09-28T06:50:41.028Z,5.45
2022-09-28T06:53:10.890Z,4.63
2022-09-28T06:55:42.875Z,5.15
2022-09-28T06:58:16.100Z,5.28
2022-09-28T07:00:44.123Z,5.90
2022-09-28T07:03:16.823Z,6.18
2022-09-28T07:05:46.747Z,5.18
2022-09-28T07:08:15.088Z,6.30
2022-09-28T07:10:47.801Z,5.57
2022-09-28T07:13:39.443Z,5.65
2022-09-28T07:16:03.577Z,5.80
2022-09-28T07:18:30.425Z,5.85
2022-09-28T07:20:57.679Z,5.47
2022-09-28T07:23:27.556Z,5.57
2022-09-28T07:25:54.760Z,5.63
2022-09-28T07:28:22.377Z,6.15
2022-09-28T07:30:49.436Z,5.75
2022-09-28T07:33:17.727Z,5.53
2022-09-28T07:35:55.723Z,5.90
2022-09-28T07:38:22.925Z,5.57
2022-09-28T07:41:08.545Z,5.70
2022-09-28T07:43:35.464Z,4.90
2022-09-28T07:46:02.339Z,5.38
2022-09-28T07:48:38.014Z,5.20
2022-09-28T07:51:05.312Z,5.07
2022-09-28T07:53:32.312Z,4.93
2022-09-28T07:56:02.243Z,4.28
2022-09-28T07:58:29.556Z,4.80
2022-09-28T08:00:56.630Z,4.60
2022-09-28T08:03:23.528Z,4.68
2022-09-28T08:05:50.543Z,3.67
2022-09-28T08:08:18.538Z,3.90
2022-09-28T08:10:47.311Z,4.07
2022-09-28T08:13:16.391Z,4.15
2022-09-28T08:15:43.240Z,4.45
2022-09-28T08:18:10.655Z,4.50
2022-09-28T08:20:56.091Z,4.63
2022-09-28T08:23:23.683Z,3.70
2022-09-28T08:25:54.195Z,4.05
2022-09-28T08:28:23.847Z,4.57
2022-09-28T08:30:51.037Z,3.97
2022-09-28T08:33:21.535Z,4.30
2022-09-28T08:35:55.796Z,3.80
2022-09-28T08:38:22.848Z,3.50
2022-09-28T08:40:49.836Z,3.55
2022-09-28T08:43:46.913Z,3.35
2022-09-28T08:46:22.680Z,3.70
2022-09-28T08:49:13.325Z,3.47
2022-09-28T08:52:06.928Z,3.67
2022-09-28T08:54:49.156Z,3.50
2022-09-28T08:57:20.822Z,2.90
2022-09-28T08:59:51.338Z,2.88
2022-09-28T09:02:33.570Z,2.25
2022-09-28T09:05:03.945Z,2.58
2022-09-28T09:07:31.036Z,2.40
2022-09-28T09:10:13.606Z,2.75
2022-09-28T09:12:49.570Z,2.53
2022-09-28T09:15:47.778Z,2.67
2022-09-28T09:18:22.430Z,2.70
2022-09-28T09:21:06.334Z,2.22
2022-09-28T09:23:37.423Z,2.47
2022-09-28T09:26:10.629Z,2.30
2022-09-28T09:29:03.429Z,1.88
2022-09-28T09:31:33.082Z,2.05
2022-09-28T09:34:18.791Z,2.08
2022-09-28T09:36:54.005Z,1.90
2022-09-28T09:39:44.160Z,1.50
2022-09-28T09:42:11.397Z,1.52
2022-09-28T09:44:59.068Z,1.50
2022-09-28T09:47:43.370Z,1.30
2022-09-28T09:50:29.869Z,1.20
2022-09-28T09:53:24.162Z,2.00
2022-09-28T09:55:59.837Z,1.23
2022-09-28T09:58:34.030Z,1.30
2022-09-28T10:01:10.912Z,1.45
2022-09-28T10:03:42.562Z,1.95
2022-09-28T10:06:13.955Z,1.67
2022-09-28T10:08:58.902Z,1.52
2022-09-28T10:11:36.789Z,1.55
2022-09-28T10:14:06.236Z,1.30
2022-09-28T10:16:33.405Z,1.27
2022-09-28T10:19:01.181Z,1.25
2022-09-28T10:21:28.957Z,1.33
2022-09-28T10:23:58.754Z,2.42
2022-09-28T10:26:37.654Z,1.10
2022-09-28T10:29:15.805Z,1.20
2022-09-28T10:31:46.443Z,1.40
2022-09-28T10:34:15.711Z,1.10
2022-09-28T10:37:09.974Z,1.30
2022-09-28T10:39:37.924Z,0.70
2022-09-28T10:42:17.952Z,0.73
2022-09-28T10:45:00.382Z,0.60
2022-09-28T10:47:32.893Z,0.70
2022-09-28T10:50:01.010Z,0.80
2022-09-28T10:52:40.882Z,1.05
2022-09-28T10:55:32.195Z,0.90
2022-09-28T10:58:24.666Z,0.77
2022-09-28T11:00:52.825Z,0.85
2022-09-28T11:03:22.758Z,0.95
2022-09-28T11:06:02.858Z,0.93
2022-09-28T11:08:38.647Z,0.95
2022-09-28T11:11:11.688Z,1.10
2022-09-28T11:13:42.973Z,1.48
2022-09-28T11:16:32.703Z,1.20
2022-09-28T11:19:05.999Z,1.00
2022-09-28T11:21:42.998Z,1.40
2022-09-28T11:24:19.053Z,1.10
2022-09-28T11:26:49.902Z,1.00
2022-09-28T11:29:54.818Z,1.60
2022-09-28T11:32:24.047Z,1.15
2022-09-28T11:34:59.556Z,1.60
2022-09-28T11:38:05.223Z,1.30
2022-09-28T11:41:03.994Z,1.52
2022-09-28T11:44:08.112Z,0.90
2022-09-28T11:47:02.818Z,1.20
2022-09-28T11:49:40.053Z,0.93
2022-09-28T11:52:29.334Z,1.30
2022-09-28T11:55:17.217Z,1.20
2022-09-28T11:57:50.698Z,1.45
2022-09-28T12:00:22.444Z,1.25
2022-09-28T12:03:13.731Z,1.08
2022-09-28T12:05:55.892Z,1.08
2022-09-28T12:08:34.856Z,1.17
2022-09-28T12:11:24.119Z,0.90
2022-09-28T12:13:54.178Z,0.90
2022-09-28T12:17:00.922Z,1.30
2022-09-28T12:19:32.384Z,0.73
2022-09-28T12:22:05.467Z,0.85
2022-09-28T12:24:42.437Z,1.27
2022-09-28T12:27:10.462Z,0.95
2022-09-28T12:29:57.959Z,1.13
2022-09-28T12:32:39.470Z,1.33
2022-09-28T12:35:24.446Z,1.40
2022-09-28T12:38:08.920Z,1.70
2022-09-28T12:40:59.096Z,1.15
2022-09-28T12:43:54.680Z,1.88
2022-09-28T12:46:49.097Z,1.40
2022-09-28T12:52:58.089Z,1.13
2022-09-28T12:55:40.162Z,1.20
2022-09-28T12:58:19.077Z,1.20
2022-09-28T13:01:05.573Z,1.10
2022-09-28T13:03:41.294Z,0.70
2022-09-28T13:06:20.145Z,0.70
2022-09-28T13:09:14.349Z,1.02
2022-09-28T13:11:41.727Z,0.93
2022-09-28T13:14:36.277Z,1.00
2022-09-28T13:17:28.886Z,0.88
2022-09-28T13:20:13.148Z,0.70
2022-09-28T13:23:00.445Z,0.88
2022-09-28T13:25:31.235Z,0.60
2022-09-28T13:28:03.395Z,0.95
2022-09-28T13:30:32.714Z,0.70
2022-09-28T13:33:03.377Z,0.85
2022-09-28T13:35:31.355Z,0.93
2022-09-28T13:38:31.567Z,0.50
2022-09-28T13:41:04.755Z,0.75
2022-09-28T13:43:57.863Z,0.70
2022-09-28T13:46:45.392Z,0.88
2022-09-28T13:49:22.639Z,0.80
2022-09-28T13:51:56.813Z,0.73
2022-09-28T13:54:45.049Z,0.80
2022-09-28T13:57:46.442Z,0.73
2022-09-28T14:00:18.772Z,1.25
2022-09-28T14:03:13.334Z,1.20
2022-09-28T14:06:07.548Z,1.45
2022-09-28T14:08:38.534Z,1.02
2022-09-28T14:11:36.030Z,1.30
2022-09-28T14:14:05.939Z,0.73
2022-09-28T14:16:38.390Z,1.00
2022-09-28T14:19:24.639Z,0.75
2022-09-28T14:21:54.422Z,0.90
2022-09-28T14:25:12.342Z,0.68
2022-09-28T14:28:02.563Z,0.73
2022-09-28T14:30:42.099Z,0.65
2022-09-28T14:33:21.498Z,0.75
2022-09-28T14:35:48.548Z,0.70
2022-09-28T14:38:38.255Z,0.70
2022-09-28T14:41:09.909Z,0.80
2022-09-28T14:43:45.887Z,0.70
2022-09-28T14:46:17.078Z,1.02
2022-09-28T14:48:51.175Z,0.80
2022-09-28T14:51:27.601Z,0.60
2022-09-28T14:54:01.260Z,0.90
2022-09-28T14:56:32.994Z,0.85
2022-09-28T14:59:00.919Z,0.70
2022-09-28T15:01:28.444Z,0.60
2022-09-28T15:03:57.201Z,0.95
2022-09-28T15:06:25.236Z,0.70
2022-09-28T15:08:52.333Z,0.50
2022-09-28T15:11:25.088Z,0.32
2022-09-28T15:14:06.408Z,0.70
2022-09-28T15:16:33.521Z,0.60
2022-09-28T15:19:06.220Z,0.77
2022-09-28T15:21:36.750Z,0.98
2022-09-28T15:24:23.752Z,0.70
2022-09-28T15:26:50.760Z,0.80
2022-09-28T15:29:23.105Z,0.73
2022-09-28T15:31:54.128Z,0.85
2022-09-28T15:34:52.801Z,0.90
2022-09-28T15:37:24.218Z,1.00
2022-09-28T15:39:52.694Z,1.00
2022-09-28T15:42:20.480Z,0.88
2022-09-28T15:45:26.728Z,1.02
2022-09-28T15:48:33.619Z,0.70
2022-09-28T15:51:10.847Z,0.60
2022-09-28T15:53:48.027Z,0.70
2022-09-28T15:56:15.095Z,0.60
2022-09-28T15:58:42.759Z,0.80
2022-09-28T16:01:47.976Z,0.60
2022-09-28T16:04:37.380Z,0.63
2022-09-28T16:07:13.160Z,1.00
2022-09-28T16:10:04.888Z,1.67
2022-09-28T16:12:42.601Z,1.33
2022-09-28T16:15:34.329Z,0.80
2022-09-28T16:18:20.793Z,0.98
2022-09-28T16:20:51.177Z,0.95
2022-09-28T16:23:25.906Z,1.00
2022-09-28T16:26:02.877Z,1.23
2022-09-28T16:28:34.515Z,1.30
2022-09-28T16:31:07.623Z,1.00
2022-09-28T16:33:43.855Z,1.08
2022-09-28T16:36:17.157Z,2.35
2022-09-28T16:38:47.682Z,1.20
2022-09-28T16:41:19.038Z,1.13
2022-09-28T16:43:47.012Z,1.17
2022-09-28T16:46:18.235Z,1.20
2022-09-28T16:48:50.365Z,1.13
2022-09-28T16:51:17.717Z,1.73
2022-09-28T16:54:14.768Z,1.20
2022-09-28T16:56:41.561Z,1.42
2022-09-28T16:59:13.619Z,1.40
2022-09-28T17:01:44.160Z,1.52
2022-09-28T17:04:12.142Z,1.70
2022-09-28T17:06:39.050Z,2.08
2022-09-28T17:09:07.198Z,1.85
2022-09-28T17:11:34.305Z,3.42
2022-09-28T17:14:03.457Z,2.58
2022-09-28T17:16:59.940Z,1.30
2022-09-28T17:19:28.610Z,1.73
2022-09-28T17:21:55.614Z,2.10
2022-09-28T17:24:22.399Z,2.33
2022-09-28T17:26:51.794Z,2.33
2022-09-28T17:29:18.982Z,1.73
2022-09-28T17:31:47.570Z,2.17
2022-09-28T17:34:16.399Z,1.88
2022-09-28T17:36:44.717Z,2.40
2022-09-28T17:39:17.471Z,2.30
2022-09-28T17:41:44.956Z,5.13
2022-09-28T17:44:16.376Z,4.82
2022-09-28T17:46:49.723Z,6.30
2022-09-28T17:49:17.599Z,4.05
2022-09-28T17:51:44.527Z,3.35
2022-09-28T17:54:13.071Z,3.40
2022-09-28T17:56:40.072Z,2.58
2022-09-28T17:59:10.975Z,3.20
2022-09-28T18:01:40.175Z,3.17
2022-09-28T18:04:08.904Z,2.50
2022-09-28T18:06:37.267Z,3.85
2022-09-28T18:09:05.167Z,2.90
2022-09-28T18:11:33.398Z,3.20
2022-09-28T18:14:00.836Z,2.40
2022-09-28T18:16:29.003Z,3.78
2022-09-28T18:18:56.313Z,3.17
2022-09-28T18:21:23.199Z,3.72
2022-09-28T18:23:50.166Z,3.10
2022-09-28T18:26:19.689Z,2.55
2022-09-28T18:28:47.284Z,2.92
2022-09-28T18:31:15.979Z,2.80
2022-09-28T18:33:43.411Z,3.13
2022-09-28T18:36:12.787Z,4.38
2022-09-28T18:38:40.092Z,4.70
2022-09-28T18:41:16.034Z,3.88
2022-09-28T18:43:53.168Z,4.50
2022-09-28T18:46:20.012Z,4.05
2022-09-28T18:48:49.686Z,4.25
2022-09-28T18:51:16.663Z,3.47
2022-09-28T18:53:43.914Z,3.85
2022-09-28T18:56:14.709Z,3.50
2022-09-28T18:58:43.041Z,3.70
2022-09-28T19:01:32.267Z,3.90
2022-09-28T19:04:01.186Z,4.05
2022-09-28T19:06:29.886Z,4.43
2022-09-28T19:08:57.385Z,4.82
2022-09-28T19:11:25.618Z,5.30
2022-09-28T19:13:54.440Z,6.72
2022-09-28T19:16:28.127Z,7.15
2022-09-28T19:18:59.133Z,8.60
2022-09-28T19:21:27.105Z,9.73
2022-09-28T19:23:55.551Z,8.65
2022-09-28T19:26:25.508Z,9.52
2022-09-28T19:28:53.119Z,9.57
2022-09-28T19:31:20.740Z,10.38
2022-09-28T19:33:48.879Z,10.40
2022-09-28T19:36:24.064Z,8.73
2022-09-28T19:38:52.546Z,12.55
2022-09-28T19:41:43.403Z,13.75
2022-09-28T19:44:30.087Z,21.83
2022-09-28T19:46:58.281Z,19.33
2022-09-28T19:49:27.495Z,19.90
2022-09-28T19:52:11.945Z,17.02
2022-09-28T19:54:39.993Z,14.07
2022-09-28T19:57:08.624Z,12.23
2022-09-28T19:59:37.244Z,12.57
2022-09-28T20:02:06.399Z,11.65
2022-09-28T20:04:33.773Z,11.60
2022-09-28T20:07:01.065Z,13.65
2022-09-28T20:09:28.204Z,13.75
2022-09-28T20:11:55.350Z,12.32
2022-09-28T20:14:24.533Z,13.75
2022-09-28T20:16:53.317Z,15.55
2022-09-28T20:19:21.833Z,13.27
2022-09-28T20:21:49.302Z,11.35
2022-09-28T20:24:17.283Z,11.55
2022-09-28T20:26:46.142Z,10.93
2022-09-28T20:29:13.950Z,9.25
2022-09-28T20:31:41.164Z,9.32
2022-09-28T20:34:09.171Z,10.05
2022-09-28T20:36:36.565Z,10.30
2022-09-28T20:39:04.074Z,10.35
2022-09-28T20:41:35.671Z,8.80
2022-09-28T20:44:05.953Z,7.93
2022-09-28T20:46:34.910Z,8.32
2022-09-28T20:49:02.035Z,7.35
2022-09-28T20:51:29.000Z,6.78
2022-09-28T20:53:57.647Z,7.00
2022-09-28T20:56:27.179Z,6.32
2022-09-28T20:58:54.899Z,5.97
2022-09-28T21:01:27.559Z,6.47
2022-09-28T21:04:02.776Z,6.43
2022-09-28T21:06:35.497Z,7.05
2022-09-28T21:09:03.181Z,7.03
2022-09-28T21:11:30.279Z,6.65
2022-09-28T21:13:59.822Z,7.03
2022-09-28T21:16:31.458Z,6.35
2022-09-28T21:18:58.609Z,6.00
2022-09-28T21:21:26.277Z,6.07
2022-09-28T21:23:54.571Z,6.63
2022-09-28T21:26:27.006Z,5.82
2022-09-28T21:28:55.835Z,7.60
2022-09-28T21:31:28.867Z,7.60
2022-09-28T21:33:57.152Z,7.47
2022-09-28T21:36:25.040Z,8.02
2022-09-28T21:38:53.491Z,7.70
2022-09-28T21:41:20.320Z,7.57
2022-09-28T21:43:47.103Z,6.50
2022-09-28T21:46:14.108Z,6.93
2022-09-28T21:48:41.135Z,6.15
2022-09-28T21:51:12.610Z,6.35
2022-09-28T21:53:39.671Z,7.35
2022-09-28T21:56:09.485Z,7.30
2022-09-28T21:58:36.463Z,7.18
2022-09-28T22:01:16.866Z,6.35
2022-09-28T22:03:47.880Z,7.20
2022-09-28T22:06:16.264Z,6.57
2022-09-28T22:08:43.598Z,7.35
2022-09-28T22:11:19.266Z,7.78
2022-09-28T22:13:51.554Z,6.90
2022-09-28T22:16:22.574Z,7.05
2022-09-28T22:18:50.444Z,6.97
2022-09-28T22:21:21.480Z,6.35
2022-09-28T22:23:48.691Z,5.93
2022-09-28T22:26:25.774Z,6.05
2022-09-28T22:28:55.690Z,6.43
2022-09-28T22:31:31.788Z,6.03
2022-09-28T22:33:59.264Z,6.28
2022-09-28T22:36:26.403Z,6.40
2022-09-28T22:38:55.375Z,7.07
2022-09-28T22:41:22.700Z,6.85
2022-09-28T22:43:52.432Z,6.35
2022-09-28T22:46:22.327Z,6.70
2022-09-28T22:48:51.208Z,6.90
2022-09-28T22:51:18.374Z,6.05
2022-09-28T22:53:45.423Z,6.72
2022-09-28T22:56:18.153Z,6.85
2022-09-28T22:58:45.697Z,6.93
2022-09-28T23:01:15.567Z,6.65
2022-09-28T23:03:42.834Z,6.45
2022-09-28T23:06:11.438Z,6.70
2022-09-28T23:08:38.643Z,6.43
2022-09-28T23:11:06.280Z,6.38
2022-09-28T23:13:33.803Z,6.63
2022-09-28T23:16:06.207Z,7.47
2022-09-28T23:18:35.413Z,6.60
2022-09-28T23:21:05.778Z,6.50
2022-09-28T23:23:33.522Z,7.57
2022-09-28T23:26:00.500Z,7.03
2022-09-28T23:28:28.211Z,7.55
2022-09-28T23:30:55.411Z,7.90
2022-09-28T23:33:22.707Z,5.93
2022-09-28T23:35:49.824Z,6.32
2022-09-28T23:38:18.425Z,6.00
2022-09-28T23:40:46.553Z,5.72
2022-09-28T23:43:14.445Z,6.20
2022-09-28T23:45:44.055Z,6.15
2022-09-28T23:48:11.079Z,5.40
2022-09-28T23:50:37.852Z,5.88
2022-09-28T23:53:05.652Z,6.10
2022-09-28T23:55:32.934Z,5.97
2022-09-28T23:57:59.972Z,6.20
